Airfield :
LOGIN :

Register | Disclaimer

   EN    FR    IT 

 










Legend :    VFR   Marginal VFR   IFR   Intensive IFR   Very Intensive IFR
Visi :
Ceiling :
>= 8 km
>= 3000ft
5 to 8 km
1000 to 3000 ft
1500m to 5 km
500 to 1000 ft
800 to 1500m
200 to 500 ft
< 800m
< 200 ft
Symbols :   Thunderstorms  Fog  Heavy snow  Heavy precipitations  Wind > 20 kt
SIGMETs :     Misc.  Thunderstorms  Icing  Turbulence  Mountain Waves  Volcanic Ashes






- Airport Elevation : 1470 ft
- IATA code : KLU


LOWK - Klagenfurt

CURRENT METAR :
  • 290750Z AUTO 07003KT 040V100 9000 FEW004 SCT007 BKN012 01/00 Q1019 BECMG BKN015

EXPIRED METARs :
  • 290720Z AUTO VRB02KT 5000 BR FEW004 BKN007 OVC018 01/01 Q1019 BECMG BKN015
  • 290650Z AUTO VRB02KT 5000 BR FEW004 BKN007 OVC014 01/01 Q1019 TEMPO 4000 -SN BKN012 BECMG BKN015
  • 290620Z AUTO VRB01KT 5000 BR FEW004 BKN007 OVC012 01/00 Q1019 TEMPO 4000 -SN BKN010
  • 290550Z AUTO VRB02KT 8000 FEW004 OVC007 01/01 Q1019 TEMPO 4000 -SN BKN010
  • 290520Z AUTO VRB02KT 7000 FEW004 OVC006 01/01 Q1018 TEMPO 4000 -SN BKN010

TAF TAF LOWK
Valid from the 29 at 06:00 until the 30 at 06:00 UTC


290515Z 2906/3006 VRB02KT 9999 BKN025 TX02/2908Z TN01/3005Z
TEMPO 2906/2911 BKN012
PROB30 2906/2908 4000 -SN BKN006



MET'MAP, your aeronautical weather chart ! - Copyright ORBIFLY December 2007 - Disclaimer

ORBIFLY MET'MAP TEAM :

Programming & Development : Alexandra Zaïnal
Original concept : Baudouin d'Aumeries
Technical & hardware support : Manuel Goepfert
Assistance : Marc-Olivier Méhu




SOURCES & CREDITS :

   NOAA